sensor_id;sensor_type;location;lat;lon;timestamp;temperature;humidity
25092;DHT22;13082;52.374;4.946;2023-11-22T00:01:05;9.40;99.90
25092;DHT22;13082;52.374;4.946;2023-11-22T00:03:31;9.40;99.90
25092;DHT22;13082;52.374;4.946;2023-11-22T00:05:57;9.40;99.90
25092;DHT22;13082;52.374;4.946;2023-11-22T00:08:23;9.40;99.90
25092;DHT22;13082;52.374;4.946;2023-11-22T00:10:48;9.40;99.90
25092;DHT22;13082;52.374;4.946;2023-11-22T00:13:14;9.50;99.90
25092;DHT22;13082;52.374;4.946;2023-11-22T00:15:39;9.50;99.90
25092;DHT22;13082;52.374;4.946;2023-11-22T00:18:05;9.40;99.90
25092;DHT22;13082;52.374;4.946;2023-11-22T00:20:31;9.40;99.90
25092;DHT22;13082;52.374;4.946;2023-11-22T00:22:57;9.40;99.90
25092;DHT22;13082;52.374;4.946;2023-11-22T00:25:22;9.40;99.90
25092;DHT22;13082;52.374;4.946;2023-11-22T00:27:48;9.40;99.90
25092;DHT22;13082;52.374;4.946;2023-11-22T00:30:14;9.40;99.90
25092;DHT22;13082;52.374;4.946;2023-11-22T00:32:40;9.40;99.90
25092;DHT22;13082;52.374;4.946;2023-11-22T00:35:06;9.40;99.90
25092;DHT22;13082;52.374;4.946;2023-11-22T00:37:33;9.30;99.90
25092;DHT22;13082;52.374;4.946;2023-11-22T00:40:00;9.30;99.90
25092;DHT22;13082;52.374;4.946;2023-11-22T00:42:31;9.30;99.90
25092;DHT22;13082;52.374;4.946;2023-11-22T00:44:57;9.30;99.90
25092;DHT22;13082;52.374;4.946;2023-11-22T00:47:22;9.30;99.90
25092;DHT22;13082;52.374;4.946;2023-11-22T00:49:48;9.30;99.90
25092;DHT22;13082;52.374;4.946;2023-11-22T00:52:13;9.30;99.90
25092;DHT22;13082;52.374;4.946;2023-11-22T00:54:39;9.30;99.90
25092;DHT22;13082;52.374;4.946;2023-11-22T00:57:04;9.30;99.90
25092;DHT22;13082;52.374;4.946;2023-11-22T00:59:32;9.30;99.90
25092;DHT22;13082;52.374;4.946;2023-11-22T01:01:57;9.30;99.90
25092;DHT22;13082;52.374;4.946;2023-11-22T01:04:24;9.30;99.90
25092;DHT22;13082;52.374;4.946;2023-11-22T01:06:49;9.30;99.90
25092;DHT22;13082;52.374;4.946;2023-11-22T01:09:15;9.20;99.90
25092;DHT22;13082;52.374;4.946;2023-11-22T01:11:40;9.20;99.90
25092;DHT22;13082;52.374;4.946;2023-11-22T01:14:06;9.20;99.90
25092;DHT22;13082;52.374;4.946;2023-11-22T01:16:32;9.20;99.90
25092;DHT22;13082;52.374;4.946;2023-11-22T01:18:57;9.20;99.90
25092;DHT22;13082;52.374;4.946;2023-11-22T01:21:23;9.20;99.90
25092;DHT22;13082;52.374;4.946;2023-11-22T01:23:49;9.20;99.90
25092;DHT22;13082;52.374;4.946;2023-11-22T01:26:14;9.20;99.90
25092;DHT22;13082;52.374;4.946;2023-11-22T01:28:42;9.20;99.90
25092;DHT22;13082;52.374;4.946;2023-11-22T01:31:11;9.20;99.90
25092;DHT22;13082;52.374;4.946;2023-11-22T01:33:38;9.20;99.90
25092;DHT22;13082;52.374;4.946;2023-11-22T01:36:04;9.10;99.90
25092;DHT22;13082;52.374;4.946;2023-11-22T01:38:29;9.00;99.90
25092;DHT22;13082;52.374;4.946;2023-11-22T01:40:55;9.00;99.90
25092;DHT22;13082;52.374;4.946;2023-11-22T01:43:21;9.00;99.90
25092;DHT22;13082;52.374;4.946;2023-11-22T01:45:49;9.00;99.90
25092;DHT22;13082;52.374;4.946;2023-11-22T01:48:15;8.90;99.90
25092;DHT22;13082;52.374;4.946;2023-11-22T01:50:42;8.90;99.90
25092;DHT22;13082;52.374;4.946;2023-11-22T01:53:09;8.90;99.90
25092;DHT22;13082;52.374;4.946;2023-11-22T01:55:36;8.80;99.90
25092;DHT22;13082;52.374;4.946;2023-11-22T01:58:01;8.80;99.90
25092;DHT22;13082;52.374;4.946;2023-11-22T02:00:32;8.90;99.90
25092;DHT22;13082;52.374;4.946;2023-11-22T02:03:00;8.90;99.90
25092;DHT22;13082;52.374;4.946;2023-11-22T02:05:26;8.90;99.90
25092;DHT22;13082;52.374;4.946;2023-11-22T02:07:52;8.90;99.90
25092;DHT22;13082;52.374;4.946;2023-11-22T02:10:18;8.90;99.90
25092;DHT22;13082;52.374;4.946;2023-11-22T02:12:44;8.90;99.90
25092;DHT22;13082;52.374;4.946;2023-11-22T02:15:10;8.90;99.90
25092;DHT22;13082;52.374;4.946;2023-11-22T02:17:35;8.90;99.90
25092;DHT22;13082;52.374;4.946;2023-11-22T02:20:01;8.90;99.90
25092;DHT22;13082;52.374;4.946;2023-11-22T02:22:31;8.80;99.90
25092;DHT22;13082;52.374;4.946;2023-11-22T02:24:57;8.80;99.90
25092;DHT22;13082;52.374;4.946;2023-11-22T02:27:23;8.80;99.90
25092;DHT22;13082;52.374;4.946;2023-11-22T02:29:48;8.70;99.90
25092;DHT22;13082;52.374;4.946;2023-11-22T02:32:15;8.80;99.90
25092;DHT22;13082;52.374;4.946;2023-11-22T02:34:41;8.70;99.90
25092;DHT22;13082;52.374;4.946;2023-11-22T02:37:06;8.70;99.90
25092;DHT22;13082;52.374;4.946;2023-11-22T02:39:55;8.80;99.90
25092;DHT22;13082;52.374;4.946;2023-11-22T02:42:22;8.80;99.90
25092;DHT22;13082;52.374;4.946;2023-11-22T02:44:48;8.80;99.90
25092;DHT22;13082;52.374;4.946;2023-11-22T02:47:14;8.80;99.90
25092;DHT22;13082;52.374;4.946;2023-11-22T02:49:39;8.80;99.90
25092;DHT22;13082;52.374;4.946;2023-11-22T02:52:05;8.80;99.90
25092;DHT22;13082;52.374;4.946;2023-11-22T02:54:31;8.70;99.90
25092;DHT22;13082;52.374;4.946;2023-11-22T02:56:57;8.80;99.90
25092;DHT22;13082;52.374;4.946;2023-11-22T02:59:22;8.80;99.90
25092;DHT22;13082;52.374;4.946;2023-11-22T03:01:48;8.80;99.90
25092;DHT22;13082;52.374;4.946;2023-11-22T03:04:16;8.80;99.90
25092;DHT22;13082;52.374;4.946;2023-11-22T03:06:42;8.80;99.90
25092;DHT22;13082;52.374;4.946;2023-11-22T03:09:07;8.80;99.90
25092;DHT22;13082;52.374;4.946;2023-11-22T03:11:33;8.80;99.90
25092;DHT22;13082;52.374;4.946;2023-11-22T03:13:59;8.70;99.90
25092;DHT22;13082;52.374;4.946;2023-11-22T03:16:25;8.70;99.90
25092;DHT22;13082;52.374;4.946;2023-11-22T03:18:50;8.70;99.90
25092;DHT22;13082;52.374;4.946;2023-11-22T03:21:16;8.70;99.90
25092;DHT22;13082;52.374;4.946;2023-11-22T03:23:42;8.70;99.90
25092;DHT22;13082;52.374;4.946;2023-11-22T03:26:08;8.70;99.90
25092;DHT22;13082;52.374;4.946;2023-11-22T03:28:35;8.70;99.90
25092;DHT22;13082;52.374;4.946;2023-11-22T03:31:00;8.70;99.90
25092;DHT22;13082;52.374;4.946;2023-11-22T03:33:28;8.70;99.90
25092;DHT22;13082;52.374;4.946;2023-11-22T03:35:53;8.60;99.90
25092;DHT22;13082;52.374;4.946;2023-11-22T03:38:19;8.60;99.90
25092;DHT22;13082;52.374;4.946;2023-11-22T03:40:46;8.60;99.90
25092;DHT22;13082;52.374;4.946;2023-11-22T03:43:12;8.60;99.90
25092;DHT22;13082;52.374;4.946;2023-11-22T03:45:37;8.60;99.90
25092;DHT22;13082;52.374;4.946;2023-11-22T03:48:03;8.60;99.90
25092;DHT22;13082;52.374;4.946;2023-11-22T03:50:29;8.60;99.90
25092;DHT22;13082;52.374;4.946;2023-11-22T03:52:54;8.70;99.90
25092;DHT22;13082;52.374;4.946;2023-11-22T03:55:20;8.60;99.90
25092;DHT22;13082;52.374;4.946;2023-11-22T03:57:45;8.60;99.90
25092;DHT22;13082;52.374;4.946;2023-11-22T04:00:11;8.60;99.90
25092;DHT22;13082;52.374;4.946;2023-11-22T04:02:37;8.50;99.90
25092;DHT22;13082;52.374;4.946;2023-11-22T04:05:03;8.40;99.90
25092;DHT22;13082;52.374;4.946;2023-11-22T04:07:29;8.30;99.90
25092;DHT22;13082;52.374;4.946;2023-11-22T04:09:55;8.20;99.90
25092;DHT22;13082;52.374;4.946;2023-11-22T04:12:21;8.10;99.90
25092;DHT22;13082;52.374;4.946;2023-11-22T04:14:46;8.00;99.90
25092;DHT22;13082;52.374;4.946;2023-11-22T04:17:12;8.00;99.90
25092;DHT22;13082;52.374;4.946;2023-11-22T04:19:37;8.00;99.90
25092;DHT22;13082;52.374;4.946;2023-11-22T04:22:03;7.90;99.90
25092;DHT22;13082;52.374;4.946;2023-11-22T04:24:29;7.90;99.90
25092;DHT22;13082;52.374;4.946;2023-11-22T04:26:54;7.80;99.90
25092;DHT22;13082;52.374;4.946;2023-11-22T04:29:20;7.70;99.90
25092;DHT22;13082;52.374;4.946;2023-11-22T04:31:45;7.70;99.90
25092;DHT22;13082;52.374;4.946;2023-11-22T04:34:11;7.70;99.90
25092;DHT22;13082;52.374;4.946;2023-11-22T04:36:37;7.70;99.90
25092;DHT22;13082;52.374;4.946;2023-11-22T04:39:04;7.60;99.90
25092;DHT22;13082;52.374;4.946;2023-11-22T04:41:29;7.60;99.90
25092;DHT22;13082;52.374;4.946;2023-11-22T04:43:55;7.70;99.90
25092;DHT22;13082;52.374;4.946;2023-11-22T04:46:21;7.60;99.90
25092;DHT22;13082;52.374;4.946;2023-11-22T04:48:46;7.60;99.90
25092;DHT22;13082;52.374;4.946;2023-11-22T04:51:16;7.60;99.90
25092;DHT22;13082;52.374;4.946;2023-11-22T04:53:42;7.60;99.90
25092;DHT22;13082;52.374;4.946;2023-11-22T04:56:09;7.60;99.90
25092;DHT22;13082;52.374;4.946;2023-11-22T04:58:35;7.60;99.90
25092;DHT22;13082;52.374;4.946;2023-11-22T05:01:01;7.60;99.90
25092;DHT22;13082;52.374;4.946;2023-11-22T05:03:27;7.50;99.90
25092;DHT22;13082;52.374;4.946;2023-11-22T05:05:53;7.50;99.90
25092;DHT22;13082;52.374;4.946;2023-11-22T05:08:18;7.40;99.90
25092;DHT22;13082;52.374;4.946;2023-11-22T05:10:44;7.40;99.90
25092;DHT22;13082;52.374;4.946;2023-11-22T05:13:10;7.30;99.90
25092;DHT22;13082;52.374;4.946;2023-11-22T05:15:36;7.30;99.90
25092;DHT22;13082;52.374;4.946;2023-11-22T05:18:02;7.30;99.90
25092;DHT22;13082;52.374;4.946;2023-11-22T05:20:27;7.20;99.90
25092;DHT22;13082;52.374;4.946;2023-11-22T05:22:53;7.20;99.90
25092;DHT22;13082;52.374;4.946;2023-11-22T05:25:18;7.10;99.90
25092;DHT22;13082;52.374;4.946;2023-11-22T05:27:44;7.00;99.90
25092;DHT22;13082;52.374;4.946;2023-11-22T05:30:10;7.00;99.90
25092;DHT22;13082;52.374;4.946;2023-11-22T05:32:36;7.00;99.90
25092;DHT22;13082;52.374;4.946;2023-11-22T05:35:02;7.10;99.90
25092;DHT22;13082;52.374;4.946;2023-11-22T05:37:28;7.10;99.90
25092;DHT22;13082;52.374;4.946;2023-11-22T05:39:54;7.10;99.90
25092;DHT22;13082;52.374;4.946;2023-11-22T05:42:20;7.10;99.90
25092;DHT22;13082;52.374;4.946;2023-11-22T05:44:46;7.10;99.90
25092;DHT22;13082;52.374;4.946;2023-11-22T05:47:11;7.00;99.90
25092;DHT22;13082;52.374;4.946;2023-11-22T05:49:38;7.00;99.90
25092;DHT22;13082;52.374;4.946;2023-11-22T05:52:04;7.00;99.90
25092;DHT22;13082;52.374;4.946;2023-11-22T05:54:30;6.90;99.90
25092;DHT22;13082;52.374;4.946;2023-11-22T05:56:57;6.90;99.90
25092;DHT22;13082;52.374;4.946;2023-11-22T05:59:22;6.80;99.90
25092;DHT22;13082;52.374;4.946;2023-11-22T06:01:49;6.70;99.90
25092;DHT22;13082;52.374;4.946;2023-11-22T06:04:15;6.70;99.90
25092;DHT22;13082;52.374;4.946;2023-11-22T06:06:40;6.70;99.90
25092;DHT22;13082;52.374;4.946;2023-11-22T06:09:06;6.60;99.90
25092;DHT22;13082;52.374;4.946;2023-11-22T06:11:32;6.40;99.90
25092;DHT22;13082;52.374;4.946;2023-11-22T06:13:58;6.40;99.90
25092;DHT22;13082;52.374;4.946;2023-11-22T06:16:23;6.40;99.90
25092;DHT22;13082;52.374;4.946;2023-11-22T06:18:49;6.40;99.90
25092;DHT22;13082;52.374;4.946;2023-11-22T06:21:14;6.40;99.90
25092;DHT22;13082;52.374;4.946;2023-11-22T06:23:40;6.50;99.90
25092;DHT22;13082;52.374;4.946;2023-11-22T06:26:06;6.50;99.90
25092;DHT22;13082;52.374;4.946;2023-11-22T06:28:32;6.50;99.90
25092;DHT22;13082;52.374;4.946;2023-11-22T06:30:57;6.50;99.90
25092;DHT22;13082;52.374;4.946;2023-11-22T06:33:23;6.40;99.90
25092;DHT22;13082;52.374;4.946;2023-11-22T06:35:48;6.40;99.90
25092;DHT22;13082;52.374;4.946;2023-11-22T06:38:14;6.50;99.90
25092;DHT22;13082;52.374;4.946;2023-11-22T06:40:40;6.40;99.90
25092;DHT22;13082;52.374;4.946;2023-11-22T06:43:05;6.40;99.90
25092;DHT22;13082;52.374;4.946;2023-11-22T06:45:32;6.30;99.90
25092;DHT22;13082;52.374;4.946;2023-11-22T06:47:57;6.30;99.90
25092;DHT22;13082;52.374;4.946;2023-11-22T06:50:23;6.30;99.90
25092;DHT22;13082;52.374;4.946;2023-11-22T06:52:50;6.30;99.90
25092;DHT22;13082;52.374;4.946;2023-11-22T06:55:17;6.30;99.90
25092;DHT22;13082;52.374;4.946;2023-11-22T06:57:43;6.30;99.90
25092;DHT22;13082;52.374;4.946;2023-11-22T07:00:09;6.30;99.90
25092;DHT22;13082;52.374;4.946;2023-11-22T07:02:35;6.30;99.90
25092;DHT22;13082;52.374;4.946;2023-11-22T07:05:02;6.30;99.90
25092;DHT22;13082;52.374;4.946;2023-11-22T07:07:34;6.30;99.90
25092;DHT22;13082;52.374;4.946;2023-11-22T07:09:59;6.30;99.90
25092;DHT22;13082;52.374;4.946;2023-11-22T07:12:25;6.20;99.90
25092;DHT22;13082;52.374;4.946;2023-11-22T07:14:52;6.20;99.90
25092;DHT22;13082;52.374;4.946;2023-11-22T07:17:17;6.20;99.90
25092;DHT22;13082;52.374;4.946;2023-11-22T07:19:43;6.10;99.90
25092;DHT22;13082;52.374;4.946;2023-11-22T07:22:15;6.10;99.90
25092;DHT22;13082;52.374;4.946;2023-11-22T07:24:47;6.10;99.90
25092;DHT22;13082;52.374;4.946;2023-11-22T07:27:14;6.10;99.90
25092;DHT22;13082;52.374;4.946;2023-11-22T07:29:40;6.00;99.90
25092;DHT22;13082;52.374;4.946;2023-11-22T07:32:07;6.00;99.90
25092;DHT22;13082;52.374;4.946;2023-11-22T07:34:38;6.00;99.90
25092;DHT22;13082;52.374;4.946;2023-11-22T07:37:05;6.00;99.90
25092;DHT22;13082;52.374;4.946;2023-11-22T07:39:32;6.00;99.90
25092;DHT22;13082;52.374;4.946;2023-11-22T07:41:58;6.00;99.90
25092;DHT22;13082;52.374;4.946;2023-11-22T07:44:24;6.10;99.90
25092;DHT22;13082;52.374;4.946;2023-11-22T07:46:50;6.20;99.90
25092;DHT22;13082;52.374;4.946;2023-11-22T07:49:18;6.20;99.90
25092;DHT22;13082;52.374;4.946;2023-11-22T07:51:44;6.20;99.90
25092;DHT22;13082;52.374;4.946;2023-11-22T07:54:10;6.20;99.90
25092;DHT22;13082;52.374;4.946;2023-11-22T07:56:43;6.20;99.90
25092;DHT22;13082;52.374;4.946;2023-11-22T07:59:10;6.20;99.90
25092;DHT22;13082;52.374;4.946;2023-11-22T08:01:42;6.30;99.90
25092;DHT22;13082;52.374;4.946;2023-11-22T08:04:09;6.30;99.90
25092;DHT22;13082;52.374;4.946;2023-11-22T08:06:35;6.40;99.90
25092;DHT22;13082;52.374;4.946;2023-11-22T08:09:01;6.40;99.90
25092;DHT22;13082;52.374;4.946;2023-11-22T08:11:27;6.50;99.90
25092;DHT22;13082;52.374;4.946;2023-11-22T08:13:53;6.50;99.90
25092;DHT22;13082;52.374;4.946;2023-11-22T08:16:23;6.50;99.90
25092;DHT22;13082;52.374;4.946;2023-11-22T08:18:48;6.60;99.90
25092;DHT22;13082;52.374;4.946;2023-11-22T08:21:14;6.60;99.90
25092;DHT22;13082;52.374;4.946;2023-11-22T08:23:40;6.60;99.90
25092;DHT22;13082;52.374;4.946;2023-11-22T08:26:05;6.60;99.90
25092;DHT22;13082;52.374;4.946;2023-11-22T08:28:32;6.70;99.90
25092;DHT22;13082;52.374;4.946;2023-11-22T08:30:57;6.70;99.90
25092;DHT22;13082;52.374;4.946;2023-11-22T08:33:23;6.80;99.90
25092;DHT22;13082;52.374;4.946;2023-11-22T08:35:48;6.80;99.90
25092;DHT22;13082;52.374;4.946;2023-11-22T08:38:17;6.70;99.90
25092;DHT22;13082;52.374;4.946;2023-11-22T08:40:44;6.70;99.90
25092;DHT22;13082;52.374;4.946;2023-11-22T08:43:10;6.60;99.90
25092;DHT22;13082;52.374;4.946;2023-11-22T08:45:36;6.70;99.90
25092;DHT22;13082;52.374;4.946;2023-11-22T08:48:01;6.70;99.90
25092;DHT22;13082;52.374;4.946;2023-11-22T08:50:27;6.70;99.90
25092;DHT22;13082;52.374;4.946;2023-11-22T08:52:53;6.60;99.90
25092;DHT22;13082;52.374;4.946;2023-11-22T08:55:19;6.60;99.90
25092;DHT22;13082;52.374;4.946;2023-11-22T08:57:48;6.60;99.90
25092;DHT22;13082;52.374;4.946;2023-11-22T09:00:14;6.70;99.90
25092;DHT22;13082;52.374;4.946;2023-11-22T09:02:40;6.70;99.90
25092;DHT22;13082;52.374;4.946;2023-11-22T09:05:06;6.80;99.90
25092;DHT22;13082;52.374;4.946;2023-11-22T09:07:34;6.90;99.90
25092;DHT22;13082;52.374;4.946;2023-11-22T09:10:02;7.00;99.90
25092;DHT22;13082;52.374;4.946;2023-11-22T09:12:35;7.00;99.90
25092;DHT22;13082;52.374;4.946;2023-11-22T09:15:02;7.00;99.90
25092;DHT22;13082;52.374;4.946;2023-11-22T09:17:29;7.10;99.90
25092;DHT22;13082;52.374;4.946;2023-11-22T09:19:56;7.10;99.90
25092;DHT22;13082;52.374;4.946;2023-11-22T09:22:23;7.10;99.90
25092;DHT22;13082;52.374;4.946;2023-11-22T09:24:51;7.00;99.90
25092;DHT22;13082;52.374;4.946;2023-11-22T09:27:17;7.00;99.90
25092;DHT22;13082;52.374;4.946;2023-11-22T09:29:43;7.00;99.90
25092;DHT22;13082;52.374;4.946;2023-11-22T09:32:10;6.90;99.90
25092;DHT22;13082;52.374;4.946;2023-11-22T09:34:36;6.90;99.90
25092;DHT22;13082;52.374;4.946;2023-11-22T09:37:01;6.90;99.90
25092;DHT22;13082;52.374;4.946;2023-11-22T09:39:27;6.90;99.90
25092;DHT22;13082;52.374;4.946;2023-11-22T09:41:53;6.90;99.90
25092;DHT22;13082;52.374;4.946;2023-11-22T09:44:19;6.90;99.90
25092;DHT22;13082;52.374;4.946;2023-11-22T09:46:48;6.90;99.90
25092;DHT22;13082;52.374;4.946;2023-11-22T09:49:20;6.90;99.90
25092;DHT22;13082;52.374;4.946;2023-11-22T09:51:48;6.90;99.90
25092;DHT22;13082;52.374;4.946;2023-11-22T09:54:14;6.90;99.90
25092;DHT22;13082;52.374;4.946;2023-11-22T09:56:41;6.90;99.90
25092;DHT22;13082;52.374;4.946;2023-11-22T09:59:07;7.00;99.90
25092;DHT22;13082;52.374;4.946;2023-11-22T10:01:33;7.00;99.90
25092;DHT22;13082;52.374;4.946;2023-11-22T10:04:02;7.10;99.90
25092;DHT22;13082;52.374;4.946;2023-11-22T10:06:31;7.10;99.90
25092;DHT22;13082;52.374;4.946;2023-11-22T10:09:02;7.20;99.90
25092;DHT22;13082;52.374;4.946;2023-11-22T10:11:34;7.20;99.90
25092;DHT22;13082;52.374;4.946;2023-11-22T10:14:01;7.30;99.90
25092;DHT22;13082;52.374;4.946;2023-11-22T10:16:27;7.30;99.90
25092;DHT22;13082;52.374;4.946;2023-11-22T10:18:53;7.30;99.90
25092;DHT22;13082;52.374;4.946;2023-11-22T10:23:52;7.30;99.90
25092;DHT22;13082;52.374;4.946;2023-11-22T10:26:18;7.30;99.90
25092;DHT22;13082;52.374;4.946;2023-11-22T10:28:44;7.30;99.90
25092;DHT22;13082;52.374;4.946;2023-11-22T10:31:10;7.30;99.90
25092;DHT22;13082;52.374;4.946;2023-11-22T10:33:45;7.20;99.90
25092;DHT22;13082;52.374;4.946;2023-11-22T10:36:11;7.20;99.90
25092;DHT22;13082;52.374;4.946;2023-11-22T10:38:38;7.30;99.90
25092;DHT22;13082;52.374;4.946;2023-11-22T10:41:04;7.30;99.90
25092;DHT22;13082;52.374;4.946;2023-11-22T10:43:30;7.40;99.90
25092;DHT22;13082;52.374;4.946;2023-11-22T10:46:02;7.30;99.90
25092;DHT22;13082;52.374;4.946;2023-11-22T10:48:27;7.30;99.90
25092;DHT22;13082;52.374;4.946;2023-11-22T10:50:55;7.40;99.90
25092;DHT22;13082;52.374;4.946;2023-11-22T10:53:28;7.50;99.90
25092;DHT22;13082;52.374;4.946;2023-11-22T10:56:19;7.50;99.90
25092;DHT22;13082;52.374;4.946;2023-11-22T10:58:50;7.50;99.90
25092;DHT22;13082;52.374;4.946;2023-11-22T11:01:16;7.50;99.90
25092;DHT22;13082;52.374;4.946;2023-11-22T11:03:54;7.50;99.90
25092;DHT22;13082;52.374;4.946;2023-11-22T11:06:24;7.50;99.90
25092;DHT22;13082;52.374;4.946;2023-11-22T11:08:57;7.50;99.90
25092;DHT22;13082;52.374;4.946;2023-11-22T11:11:25;7.50;99.90
25092;DHT22;13082;52.374;4.946;2023-11-22T11:13:52;7.40;99.90
25092;DHT22;13082;52.374;4.946;2023-11-22T11:16:19;7.40;99.90
25092;DHT22;13082;52.374;4.946;2023-11-22T11:18:44;7.40;99.90
25092;DHT22;13082;52.374;4.946;2023-11-22T11:21:10;7.40;99.90
25092;DHT22;13082;52.374;4.946;2023-11-22T11:23:40;7.40;99.90
25092;DHT22;13082;52.374;4.946;2023-11-22T11:26:19;7.30;99.90
25092;DHT22;13082;52.374;4.946;2023-11-22T11:28:50;7.30;99.90
25092;DHT22;13082;52.374;4.946;2023-11-22T11:31:22;7.30;99.90
25092;DHT22;13082;52.374;4.946;2023-11-22T11:36:39;7.40;99.90
25092;DHT22;13082;52.374;4.946;2023-11-22T11:39:07;7.30;99.90
25092;DHT22;13082;52.374;4.946;2023-11-22T11:41:41;7.40;99.90
25092;DHT22;13082;52.374;4.946;2023-11-22T11:44:08;7.50;99.90
25092;DHT22;13082;52.374;4.946;2023-11-22T11:46:38;7.60;99.90
25092;DHT22;13082;52.374;4.946;2023-11-22T11:49:08;7.60;99.90
25092;DHT22;13082;52.374;4.946;2023-11-22T11:51:34;7.60;99.90
25092;DHT22;13082;52.374;4.946;2023-11-22T11:54:00;7.60;99.90
25092;DHT22;13082;52.374;4.946;2023-11-22T11:56:27;7.60;99.90
25092;DHT22;13082;52.374;4.946;2023-11-22T11:58:57;7.60;99.90
25092;DHT22;13082;52.374;4.946;2023-11-22T12:01:27;7.60;99.90
25092;DHT22;13082;52.374;4.946;2023-11-22T12:03:55;7.60;99.90
25092;DHT22;13082;52.374;4.946;2023-11-22T12:06:22;7.70;99.90
25092;DHT22;13082;52.374;4.946;2023-11-22T12:08:48;7.60;99.90
25092;DHT22;13082;52.374;4.946;2023-11-22T12:11:15;7.60;99.90
25092;DHT22;13082;52.374;4.946;2023-11-22T12:13:41;7.70;99.90
25092;DHT22;13082;52.374;4.946;2023-11-22T12:16:16;7.80;99.90
25092;DHT22;13082;52.374;4.946;2023-11-22T12:18:42;7.90;99.90
25092;DHT22;13082;52.374;4.946;2023-11-22T12:21:09;8.00;99.90
25092;DHT22;13082;52.374;4.946;2023-11-22T12:23:39;8.00;99.90
25092;DHT22;13082;52.374;4.946;2023-11-22T12:26:10;8.00;99.90
25092;DHT22;13082;52.374;4.946;2023-11-22T12:28:39;8.10;99.90
25092;DHT22;13082;52.374;4.946;2023-11-22T12:31:13;8.10;99.90
25092;DHT22;13082;52.374;4.946;2023-11-22T12:33:43;8.10;99.90
25092;DHT22;13082;52.374;4.946;2023-11-22T12:36:12;8.20;99.90
25092;DHT22;13082;52.374;4.946;2023-11-22T12:38:42;8.10;99.90
25092;DHT22;13082;52.374;4.946;2023-11-22T12:41:08;8.00;99.90
25092;DHT22;13082;52.374;4.946;2023-11-22T12:43:34;8.00;99.90
25092;DHT22;13082;52.374;4.946;2023-11-22T12:46:07;8.00;99.90
25092;DHT22;13082;52.374;4.946;2023-11-22T12:48:36;8.00;99.90
25092;DHT22;13082;52.374;4.946;2023-11-22T12:51:01;8.00;99.90
25092;DHT22;13082;52.374;4.946;2023-11-22T12:53:27;7.90;99.90
25092;DHT22;13082;52.374;4.946;2023-11-22T12:55:54;7.90;99.90
25092;DHT22;13082;52.374;4.946;2023-11-22T12:58:22;7.90;99.90
25092;DHT22;13082;52.374;4.946;2023-11-22T13:00:50;7.90;99.90
25092;DHT22;13082;52.374;4.946;2023-11-22T13:03:16;7.90;99.90
25092;DHT22;13082;52.374;4.946;2023-11-22T13:05:43;7.90;99.90
25092;DHT22;13082;52.374;4.946;2023-11-22T13:08:10;7.90;99.90
25092;DHT22;13082;52.374;4.946;2023-11-22T13:10:39;7.80;99.90
25092;DHT22;13082;52.374;4.946;2023-11-22T13:13:05;7.80;99.90
25092;DHT22;13082;52.374;4.946;2023-11-22T13:15:34;7.80;99.90
25092;DHT22;13082;52.374;4.946;2023-11-22T13:18:00;7.80;99.90
25092;DHT22;13082;52.374;4.946;2023-11-22T13:20:26;7.90;99.90
25092;DHT22;13082;52.374;4.946;2023-11-22T13:22:55;7.90;99.90
25092;DHT22;13082;52.374;4.946;2023-11-22T13:25:22;7.90;99.90
25092;DHT22;13082;52.374;4.946;2023-11-22T13:27:49;7.90;99.90
25092;DHT22;13082;52.374;4.946;2023-11-22T13:30:16;7.90;99.90
25092;DHT22;13082;52.374;4.946;2023-11-22T13:32:45;7.90;99.90
25092;DHT22;13082;52.374;4.946;2023-11-22T13:35:11;7.90;99.90
25092;DHT22;13082;52.374;4.946;2023-11-22T13:37:41;7.90;99.90
25092;DHT22;13082;52.374;4.946;2023-11-22T13:40:12;7.90;99.90
25092;DHT22;13082;52.374;4.946;2023-11-22T13:42:44;8.00;99.90
25092;DHT22;13082;52.374;4.946;2023-11-22T13:45:14;8.00;99.90
25092;DHT22;13082;52.374;4.946;2023-11-22T13:47:53;8.00;99.90
25092;DHT22;13082;52.374;4.946;2023-11-22T13:50:23;8.00;99.90
25092;DHT22;13082;52.374;4.946;2023-11-22T13:52:49;7.90;99.90
25092;DHT22;13082;52.374;4.946;2023-11-22T13:55:16;7.90;99.90
25092;DHT22;13082;52.374;4.946;2023-11-22T13:57:45;8.00;99.90
25092;DHT22;13082;52.374;4.946;2023-11-22T14:00:11;8.00;99.90
25092;DHT22;13082;52.374;4.946;2023-11-22T14:02:51;8.00;99.90
25092;DHT22;13082;52.374;4.946;2023-11-22T14:05:17;8.10;99.90
25092;DHT22;13082;52.374;4.946;2023-11-22T14:07:43;8.00;99.90
25092;DHT22;13082;52.374;4.946;2023-11-22T14:10:10;8.00;99.90
25092;DHT22;13082;52.374;4.946;2023-11-22T14:12:37;7.90;99.90
25092;DHT22;13082;52.374;4.946;2023-11-22T14:15:03;8.00;99.90
25092;DHT22;13082;52.374;4.946;2023-11-22T14:17:32;7.90;99.90
25092;DHT22;13082;52.374;4.946;2023-11-22T14:19:57;7.90;99.90
25092;DHT22;13082;52.374;4.946;2023-11-22T14:22:23;8.00;99.90
25092;DHT22;13082;52.374;4.946;2023-11-22T14:24:51;7.90;99.90
25092;DHT22;13082;52.374;4.946;2023-11-22T14:27:17;8.00;99.90
25092;DHT22;13082;52.374;4.946;2023-11-22T14:29:43;7.90;99.90
25092;DHT22;13082;52.374;4.946;2023-11-22T14:32:10;7.90;99.90
25092;DHT22;13082;52.374;4.946;2023-11-22T14:34:36;8.00;99.90
25092;DHT22;13082;52.374;4.946;2023-11-22T14:37:04;8.00;99.90
25092;DHT22;13082;52.374;4.946;2023-11-22T14:39:30;8.00;99.90
25092;DHT22;13082;52.374;4.946;2023-11-22T14:41:56;8.00;99.90
25092;DHT22;13082;52.374;4.946;2023-11-22T14:44:21;8.00;99.90
25092;DHT22;13082;52.374;4.946;2023-11-22T14:46:47;8.00;99.90
25092;DHT22;13082;52.374;4.946;2023-11-22T14:49:14;8.00;99.90
25092;DHT22;13082;52.374;4.946;2023-11-22T14:51:40;8.00;99.90
25092;DHT22;13082;52.374;4.946;2023-11-22T14:54:06;8.00;99.90
25092;DHT22;13082;52.374;4.946;2023-11-22T14:56:32;8.00;99.90
25092;DHT22;13082;52.374;4.946;2023-11-22T14:58:57;8.10;99.90
25092;DHT22;13082;52.374;4.946;2023-11-22T15:01:25;8.10;99.90
25092;DHT22;13082;52.374;4.946;2023-11-22T15:03:51;8.10;99.90
25092;DHT22;13082;52.374;4.946;2023-11-22T15:06:20;8.10;99.90
25092;DHT22;13082;52.374;4.946;2023-11-22T15:08:46;8.10;99.90
25092;DHT22;13082;52.374;4.946;2023-11-22T15:11:13;8.10;99.90
25092;DHT22;13082;52.374;4.946;2023-11-22T15:13:41;8.00;99.90
25092;DHT22;13082;52.374;4.946;2023-11-22T15:16:07;8.00;99.90
25092;DHT22;13082;52.374;4.946;2023-11-22T15:18:32;7.90;99.90
25092;DHT22;13082;52.374;4.946;2023-11-22T15:20:58;8.00;99.90
25092;DHT22;13082;52.374;4.946;2023-11-22T15:23:24;8.00;99.90
25092;DHT22;13082;52.374;4.946;2023-11-22T15:25:49;8.00;99.90
25092;DHT22;13082;52.374;4.946;2023-11-22T15:28:15;8.00;99.90
25092;DHT22;13082;52.374;4.946;2023-11-22T15:30:51;7.90;99.90
25092;DHT22;13082;52.374;4.946;2023-11-22T15:33:25;7.90;99.90
25092;DHT22;13082;52.374;4.946;2023-11-22T15:35:51;8.00;99.90
25092;DHT22;13082;52.374;4.946;2023-11-22T15:38:17;7.90;99.90
25092;DHT22;13082;52.374;4.946;2023-11-22T15:40:43;8.00;99.90
25092;DHT22;13082;52.374;4.946;2023-11-22T15:43:09;8.00;99.90
25092;DHT22;13082;52.374;4.946;2023-11-22T15:45:34;7.90;99.90
25092;DHT22;13082;52.374;4.946;2023-11-22T15:48:01;7.90;99.90